Adrian, West Virginia
Current Conditions -  °F | °C
As of 1:55 AM on Thursday 27 Nov 2014 (Local Time) from KW22 Reporting Station
Haze Haze  
Wind Chill: 32°   Ceiling: 4500
Heat Index: 32°   Visibility: 3mi
Dew Point: 32°   Wind: 0mph
Humidity: 100%   Direction: NA
Pressure: 29.98"   Gusts: NA
Location:  38.91°N, 80.28°W
Report Text: KW22 270655Z AUTO 00000KT 3SM BR FEW003 SCT014 BKN045 00/00 A2998 RMK AO2
Loading
Personal Weather Stations






























Interactive Weather Map New forecast layout! Learn more

10-Day Weather Forecast

Advertisements
Track Severe Weather on mobile